Time;durP1;ratioP1;P1;durP2;ratioP2;P2;SDS_P1;SDS_P2;PMS_P1;PMS_P2;Temp;Humidity;BMP_temperature;BMP_pressure;BME280_temperature;BME280_humidity;BME280_pressure;Samples;Min_cycle;Max_cycle;Signal;HPM_P1;HPM_P2
2023/06/08 00:02:13;;;;;;;5.70;3.73;;;;;;;18.16;79.25;99551.72;5042291;28;20609;-67
2023/06/08 00:04:40;;;;;;;6.20;3.47;;;;;;;18.19;79.03;99559.31;5035816;28;20199;-67
2023/06/08 00:07:09;;;;;;;3.60;3.00;;;;;;;18.03;79.42;99543.97;5053892;28;20205;-67
2023/06/08 00:09:37;;;;;;;4.87;3.67;;;;;;;18.03;79.46;99543.97;5053668;28;20291;-68
2023/06/08 00:12:05;;;;;;;3.70;3.40;;;;;;;18.02;79.58;99548.56;5053667;28;20226;-68
2023/06/08 00:14:32;;;;;;;4.33;3.27;;;;;;;18.06;79.46;99543.50;5051410;28;20283;-68
2023/06/08 00:17:02;;;;;;;6.07;3.40;;;;;;;18.11;79.70;99548.94;5033752;28;20726;-69
2023/06/08 00:19:31;;;;;;;6.13;2.80;;;;;;;18.27;80.75;99545.47;5033614;28;20666;-69
2023/06/08 00:21:58;;;;;;;3.40;3.10;;;;;;;18.38;81.02;99547.31;5033650;28;20193;-69
2023/06/08 00:24:25;;;;;;;4.60;2.97;;;;;;;18.42;79.25;99543.84;5033335;28;20213;-69
2023/06/08 00:26:52;;;;;;;3.57;3.27;;;;;;;18.45;79.72;99539.84;5052841;28;20197;-69
2023/06/08 00:29:20;;;;;;;3.93;3.40;;;;;;;18.49;79.25;99543.69;5053409;28;20215;-69
2023/06/08 00:31:49;;;;;;;3.47;3.10;;;;;;;18.49;78.35;99544.50;5053293;28;20195;-69
2023/06/08 00:34:16;;;;;;;3.43;3.23;;;;;;;18.53;78.43;99544.81;5052923;28;20691;-69
2023/06/08 00:36:45;;;;;;;3.20;2.80;;;;;;;18.60;78.26;99550.88;5033419;28;20673;-69
2023/06/08 00:39:12;;;;;;;3.20;2.90;;;;;;;18.65;78.61;99548.25;5033150;28;20229;-69
2023/06/08 00:41:39;;;;;;;3.90;3.10;;;;;;;18.72;77.81;99554.28;5033409;28;20199;-70
2023/06/08 00:44:09;;;;;;;3.80;3.03;;;;;;;18.49;78.06;99543.69;5033222;28;20276;-69
2023/06/08 00:46:37;;;;;;;3.67;3.37;;;;;;;18.53;78.08;99539.44;5048154;28;20574;-70
2023/06/08 00:49:05;;;;;;;4.13;3.47;;;;;;;18.47;77.54;99543.97;5032731;28;20561;-69
2023/06/08 00:51:34;;;;;;;5.07;3.27;;;;;;;18.50;78.63;99540.75;5032917;28;20199;-69
2023/06/08 00:54:04;;;;;;;3.27;2.80;;;;;;;18.56;78.31;99533.59;5032782;28;20278;-68
2023/06/08 00:56:32;;;;;;;5.23;3.50;;;;;;;18.68;78.33;99534.31;5049041;28;20279;-68
2023/06/08 00:59:02;;;;;;;3.43;3.10;;;;;;;18.69;77.16;99542.13;5052379;28;20275;-69
2023/06/08 01:01:30;;;;;;;3.97;3.13;;;;;;;18.71;77.40;99531.94;5052086;28;20259;-69
2023/06/08 01:04:05;;;;;;;4.50;2.83;;;;;;;18.70;77.79;99533.00;5049633;28;20224;-69
2023/06/08 01:06:32;;;;;;;3.20;3.00;;;;;;;18.70;76.99;99540.28;5032593;28;20196;-68
2023/06/08 01:09:11;;;;;;;5.20;3.37;;;;;;;18.63;77.82;99528.84;5031332;28;20206;-68
2023/06/08 01:11:45;;;;;;;3.30;3.00;;;;;;;18.79;77.48;99538.78;5032992;28;20189;-69
2023/06/08 01:14:19;;;;;;;3.80;3.30;;;;;;;18.85;76.88;99537.78;5045246;28;20258;-69
2023/06/08 01:16:52;;;;;;;3.77;3.50;;;;;;;18.87;76.66;99525.69;5052788;28;20200;-69
2023/06/08 01:19:28;;;;;;;3.83;3.17;;;;;;;18.92;76.03;99541.13;5052529;28;20188;-70
2023/06/08 01:22:09;;;;;;;4.43;3.43;;;;;;;18.82;76.51;99522.13;5052542;28;20195;-70
2023/06/08 01:24:38;;;;;;;7.37;3.77;;;;;;;18.97;76.02;99541.16;5035112;28;20556;-70
2023/06/08 01:27:07;;;;;;;3.20;2.80;;;;;;;19.00;76.80;99538.00;5032491;28;20210;-70
2023/06/08 01:29:35;;;;;;;3.40;3.20;;;;;;;19.06;76.85;99527.03;5032282;28;20218;-70
2023/06/08 01:32:02;;;;;;;6.13;3.47;;;;;;;19.19;75.82;99534.75;5032102;28;20701;-70
2023/06/08 01:34:29;;;;;;;4.83;3.50;;;;;;;19.25;75.57;99541.03;5046371;28;20223;-70
2023/06/08 01:37:08;;;;;;;7.43;4.43;;;;;;;19.30;75.11;99541.09;5052277;28;20202;-70
2023/06/08 01:39:46;;;;;;;4.50;4.00;;;;;;;19.35;74.11;99543.84;5052174;28;20629;-70
2023/06/08 01:42:16;;;;;;;4.10;3.83;;;;;;;19.39;74.39;99542.28;5052282;28;20271;-71
2023/06/08 01:44:50;;;;;;;4.13;3.83;;;;;;;19.41;74.03;99548.25;5034892;28;20206;-71
2023/06/08 01:47:17;;;;;;;6.83;4.50;;;;;;;19.34;74.69;99543.06;5032247;28;20225;-71
2023/06/08 01:49:46;;;;;;;6.57;4.93;;;;;;;19.39;74.62;99550.34;5032111;28;20201;-71
2023/06/08 01:52:13;;;;;;;5.17;4.67;;;;;;;19.39;74.02;99551.19;5041368;28;20200;-70
2023/06/08 01:54:41;;;;;;;8.10;5.63;;;;;;;19.35;73.70;99544.66;5051907;28;20668;-70
2023/06/08 01:57:08;;;;;;;7.33;5.97;;;;;;;19.35;74.13;99551.94;5051962;28;20257;-69
2023/06/08 01:59:35;;;;;;;7.03;5.67;;;;;;;19.22;74.39;99530.72;5049684;28;20200;-69
2023/06/08 02:02:02;;;;;;;6.70;6.10;;;;;;;19.33;74.68;99546.00;5031770;28;20290;-70
2023/06/08 02:04:31;;;;;;;7.53;5.63;;;;;;;19.35;73.94;99546.53;5031918;28;20201;-69
2023/06/08 02:06:58;;;;;;;7.07;6.23;;;;;;;19.33;73.93;99541.44;5032290;28;20619;-69
2023/06/08 02:09:25;;;;;;;5.40;5.10;;;;;;;19.43;74.25;99540.72;5031968;28;20261;-69
2023/06/08 02:12:06;;;;;;;6.70;6.07;;;;;;;19.43;73.80;99543.41;5051305;28;20207;-69
2023/06/08 02:14:32;;;;;;;9.23;6.70;;;;;;;19.42;73.71;99544.47;5052346;28;20273;-69
2023/06/08 02:17:00;;;;;;;11.17;7.00;;;;;;;19.40;73.88;99547.41;5088297;28;20196;-69
2023/06/08 02:19:27;;;;;;;7.93;6.90;;;;;;;19.36;73.46;99540.09;5055419;28;20253;-70
2023/06/08 02:21:54;;;;;;;8.83;7.13;;;;;;;19.28;73.86;99548.63;5035312;28;20746;-70
2023/06/08 02:24:21;;;;;;;7.73;6.97;;;;;;;19.25;74.64;99538.34;5035439;28;20198;-70
2023/06/08 02:26:51;;;;;;;8.87;6.70;;;;;;;19.16;74.09;99539.81;5035820;28;20197;-69
2023/06/08 02:29:20;;;;;;;6.70;6.07;;;;;;;18.93;75.51;99532.78;5035533;28;20922;-71
2023/06/08 02:31:46;;;;;;;8.03;5.43;;;;;;;18.77;75.37;99538.19;5052564;28;20196;-69
2023/06/08 02:34:15;;;;;;;7.70;5.10;;;;;;;18.59;76.56;99533.91;5054985;28;20598;-71
2023/06/08 02:36:43;;;;;;;7.20;4.90;;;;;;;18.46;76.74;99533.44;5055710;28;20195;-70
2023/06/08 02:39:11;;;;;;;8.37;5.33;;;;;;;18.36;77.39;99525.19;5055109;28;20691;-70
2023/06/08 02:41:37;;;;;;;6.17;5.20;;;;;;;18.30;78.55;99531.53;5036306;28;20198;-69
2023/06/08 02:44:05;;;;;;;10.13;4.90;;;;;;;18.27;78.60;99530.16;5035226;28;20289;-70
2023/06/08 02:46:33;;;;;;;6.50;4.70;;;;;;;18.31;78.14;99527.78;5035211;28;20206;-70
2023/06/08 02:49:00;;;;;;;4.67;4.37;;;;;;;18.33;78.23;99529.16;5033921;28;20201;-69
2023/06/08 02:51:27;;;;;;;12.67;5.20;;;;;;;18.35;78.12;99531.66;5050772;28;20283;-70
2023/06/08 02:53:54;;;;;;;7.83;5.53;;;;;;;18.38;78.24;99531.97;5054721;28;20227;-70
2023/06/08 02:56:21;;;;;;;13.20;5.20;;;;;;;18.41;78.56;99536.03;5055115;28;20195;-69
2023/06/08 02:58:48;;;;;;;5.10;4.60;;;;;;;18.34;78.18;99519.25;5047373;28;20575;-70
2023/06/08 03:01:15;;;;;;;12.80;5.27;;;;;;;18.50;78.47;99534.59;5034968;28;20201;-69
2023/06/08 03:03:45;;;;;;;6.10;4.80;;;;;;;18.50;79.07;99539.97;5034056;28;20189;-69
2023/06/08 03:06:12;;;;;;;13.63;5.53;;;;;;;18.43;77.67;99539.31;5034587;28;20201;-69
2023/06/08 03:08:39;;;;;;;6.90;4.37;;;;;;;18.31;78.48;99525.09;5040892;28;20620;-70
2023/06/08 03:11:06;;;;;;;4.83;4.27;;;;;;;18.42;78.57;99538.47;5053470;28;20260;-70
2023/06/08 03:13:33;;;;;;;6.57;4.73;;;;;;;18.52;77.97;99546.72;5054897;28;20219;-69
2023/06/08 03:15:59;;;;;;;4.80;4.37;;;;;;;18.67;77.77;99540.75;5054407;28;20285;-69
2023/06/08 03:18:28;;;;;;;7.53;4.03;;;;;;;18.80;76.74;99545.78;5048670;28;20203;-70
2023/06/08 03:20:58;;;;;;;7.40;4.47;;;;;;;18.82;75.76;99543.66;5034950;28;20203;-70
2023/06/08 03:23:25;;;;;;;3.97;3.57;;;;;;;18.84;76.16;99536.16;5034605;28;20205;-70
2023/06/08 03:25:52;;;;;;;4.43;4.07;;;;;;;18.92;76.48;99543.81;5033737;28;20252;-69
2023/06/08 03:28:19;;;;;;;6.40;4.30;;;;;;;18.89;76.74;99539.72;5036258;28;20197;-69
2023/06/08 03:30:47;;;;;;;4.87;4.43;;;;;;;18.90;75.25;99548.59;5053158;28;20203;-69
2023/06/08 03:33:15;;;;;;;11.33;4.80;;;;;;;18.81;76.46;99539.34;5053111;28;20319;-69
2023/06/08 03:35:41;;;;;;;6.40;4.50;;;;;;;18.89;75.21;99545.13;5054295;28;20289;-69
2023/06/08 03:38:09;;;;;;;8.60;5.07;;;;;;;18.90;75.12;99545.91;5052694;28;20251;-70
2023/06/08 03:40:36;;;;;;;14.47;5.03;;;;;;;18.88;75.36;99551.56;5034484;28;20240;-69
2023/06/08 03:43:03;;;;;;;8.87;4.60;;;;;;;18.94;75.08;99547.03;5034044;28;20209;-69
2023/06/08 03:45:33;;;;;;;12.17;4.77;;;;;;;18.99;76.02;99549.84;5016325;28;20199;-70
2023/06/08 03:48:00;;;;;;;13.47;4.53;;;;;;;19.01;74.63;99559.28;5034263;28;20197;-72
2023/06/08 03:50:28;;;;;;;5.87;4.63;;;;;;;19.04;75.63;99547.19;5034038;28;20205;-71
2023/06/08 03:52:54;;;;;;;10.10;5.67;;;;;;;19.16;73.96;99558.66;5042685;28;20728;-71
2023/06/08 03:55:23;;;;;;;12.57;4.57;;;;;;;19.31;74.25;99561.56;5053924;28;20249;-72
2023/06/08 03:57:50;;;;;;;11.23;4.90;;;;;;;19.42;72.85;99560.63;5054057;28;20641;-72
2023/06/08 04:00:19;;;;;;;10.13;4.90;;;;;;;19.53;72.53;99562.41;5053365;28;20690;-71
2023/06/08 04:02:46;;;;;;;9.40;6.67;;;;;;;19.89;71.59;99569.81;5046150;28;20252;-71
2023/06/08 04:05:14;;;;;;;10.53;4.83;;;;;;;20.42;71.63;99567.09;5033540;28;20284;-71
2023/06/08 04:07:41;;;;;;;27.10;5.20;;;;;;;21.52;67.61;99585.91;5033138;28;20201;-70
2023/06/08 04:10:08;;;;;;;12.17;5.00;;;;;;;22.52;62.85;99584.25;5048231;28;20203;-71
2023/06/08 04:12:36;;;;;;;9.50;4.57;;;;;;;23.25;60.45;99583.63;5033236;28;20625;-70
2023/06/08 04:15:03;;;;;;;10.43;4.63;;;;;;;24.03;56.33;99588.19;5033288;28;20224;-70
2023/06/08 04:17:30;;;;;;;9.53;4.33;;;;;;;24.62;54.04;99602.44;5033266;28;20255;-70
2023/06/08 04:19:57;;;;;;;10.30;4.60;;;;;;;25.16;52.31;99599.47;5032182;28;20332;-70
2023/06/08 04:22:24;;;;;;;11.67;4.60;;;;;;;25.15;50.80;99597.84;5033185;28;20568;-71
2023/06/08 04:24:51;;;;;;;11.00;4.60;;;;;;;25.25;51.07;99597.75;5032561;28;20201;-71
2023/06/08 04:27:19;;;;;;;8.73;4.27;;;;;;;25.25;51.20;99596.94;5033388;28;20200;-70
2023/06/08 04:29:48;;;;;;;9.93;4.90;;;;;;;25.33;50.70;99593.59;5033146;28;20661;-70
2023/06/08 04:32:15;;;;;;;14.63;4.50;;;;;;;25.70;48.89;99593.69;5048954;28;20200;-70
2023/06/08 04:34:42;;;;;;;6.27;4.47;;;;;;;26.29;47.75;99586.59;5046613;28;20220;-71
2023/06/08 04:37:10;;;;;;;4.83;4.47;;;;;;;26.95;45.40;99595.31;5031051;28;20750;-72
2023/06/08 04:39:38;;;;;;;6.73;2.63;;;;;;;27.07;49.52;99584.75;5030016;28;20243;-76
2023/06/08 04:42:05;;;;;;;8.40;3.87;;;;;;;28.03;44.65;99583.63;5046158;28;20603;-76
2023/06/08 04:44:33;;;;;;;10.00;3.23;;;;;;;28.96;41.63;99594.47;5032708;28;20194;-77
2023/06/08 04:47:02;;;;;;;4.20;3.60;;;;;;;29.81;37.96;99591.31;5031681;28;20197;-75
2023/06/08 04:49:32;;;;;;;13.73;3.73;;;;;;;30.56;37.54;99588.94;5031811;28;20190;-69
2023/06/08 04:51:59;;;;;;;7.00;3.90;;;;;;;30.79;35.62;99584.91;5031201;28;20205;-69
2023/06/08 04:54:27;;;;;;;7.83;3.70;;;;;;;31.08;34.77;99583.06;5030754;28;20225;-71
2023/06/08 04:56:58;;;;;;;13.57;3.70;;;;;;;31.46;34.96;99581.13;5031086;28;20247;-68
2023/06/08 04:59:25;;;;;;;10.60;3.23;;;;;;;31.43;35.11;99584.53;5029868;28;20229;-67
2023/06/08 05:01:52;;;;;;;5.27;3.90;;;;;;;31.33;33.80;99584.09;5030290;28;20197;-68
2023/06/08 05:04:20;;;;;;;8.93;3.43;;;;;;;31.04;34.07;99584.03;5030748;28;20243;-70
2023/06/08 05:06:49;;;;;;;3.97;2.83;;;;;;;31.26;35.39;99595.59;5032210;28;20371;-70
2023/06/08 05:09:16;;;;;;;6.27;3.40;;;;;;;31.73;34.04;99583.41;5032273;28;20284;-70
2023/06/08 05:11:45;;;;;;;16.10;5.03;;;;;;;31.42;34.36;99593.94;5032383;28;20201;-70
2023/06/08 05:14:15;;;;;;;6.67;3.40;;;;;;;30.86;35.25;99594.25;5015303;28;20315;-70
2023/06/08 05:16:45;;;;;;;8.50;2.97;;;;;;;31.46;34.58;99600.38;5032148;28;20344;-70
2023/06/08 05:19:13;;;;;;;8.17;3.60;;;;;;;31.35;35.02;99604.59;5032736;28;20205;-69
2023/06/08 05:21:41;;;;;;;4.60;3.30;;;;;;;31.07;34.99;99602.59;5031182;28;20204;-69
2023/06/08 05:24:09;;;;;;;8.00;2.70;;;;;;;31.31;34.88;99603.66;5032434;28;20288;-70
2023/06/08 05:26:36;;;;;;;4.37;3.50;;;;;;;31.67;33.94;99598.47;5031098;28;20197;-69
2023/06/08 05:29:03;;;;;;;4.47;2.80;;;;;;;32.01;33.02;99603.78;5031506;28;20554;-69
2023/06/08 05:31:32;;;;;;;8.27;2.70;;;;;;;31.91;33.22;99603.38;5032362;28;20209;-71
2023/06/08 05:33:58;;;;;;;7.77;3.60;;;;;;;32.18;32.48;99600.91;5032044;28;20256;-70
2023/06/08 05:36:25;;;;;;;6.17;3.40;;;;;;;32.25;32.54;99601.16;5031652;28;20566;-71
2023/06/08 05:38:53;;;;;;;3.40;3.10;;;;;;;32.49;31.71;99606.81;5031837;28;20587;-70
2023/06/08 05:41:22;;;;;;;2.80;2.60;;;;;;;32.23;32.50;99603.47;5031317;28;20201;-72
2023/06/08 05:43:48;;;;;;;4.30;2.93;;;;;;;32.47;31.76;99613.81;5030896;28;20212;-70
2023/06/08 05:46:15;;;;;;;6.03;3.17;;;;;;;32.41;32.34;99604.94;5032167;28;20201;-71
2023/06/08 05:48:42;;;;;;;11.97;3.53;;;;;;;32.52;31.33;99614.41;5031399;28;20625;-70
2023/06/08 05:51:09;;;;;;;4.03;2.50;;;;;;;32.14;32.58;99613.69;5031710;28;20590;-72
2023/06/08 05:53:38;;;;;;;8.10;2.80;;;;;;;31.85;32.86;99600.00;5031914;28;20614;-73
2023/06/08 05:56:06;;;;;;;4.13;2.87;;;;;;;31.79;33.00;99597.78;5031603;28;20244;-70
2023/06/08 05:58:33;;;;;;;9.33;3.77;;;;;;;31.70;32.86;99595.06;5029499;28;20232;-73
2023/06/08 06:01:04;;;;;;;14.67;3.40;;;;;;;31.47;33.71;99606.66;5030293;28;20261;-72
2023/06/08 06:03:31;;;;;;;8.47;3.40;;;;;;;31.26;33.54;99603.84;5031322;28;20557;-72
2023/06/08 06:05:58;;;;;;;4.60;3.77;;;;;;;30.85;34.58;99600.88;5028969;28;20259;-70
2023/06/08 06:08:25;;;;;;;10.80;3.47;;;;;;;30.50;36.06;99593.78;5029388;28;20627;-71
2023/06/08 06:10:52;;;;;;;5.17;3.53;;;;;;;30.50;35.46;99593.00;5029400;28;20193;-69
2023/06/08 06:13:21;;;;;;;4.60;3.40;;;;;;;30.17;35.49;99584.44;5029877;28;20736;-69
2023/06/08 06:15:48;;;;;;;6.43;2.73;;;;;;;29.92;36.82;99587.94;5030024;28;20225;-68
2023/06/08 06:18:14;;;;;;;5.33;3.43;;;;;;;29.58;37.10;99590.59;5030186;28;20630;-68
2023/06/08 06:20:41;;;;;;;6.63;3.60;;;;;;;29.93;36.36;99589.53;5029383;28;20263;-70
2023/06/08 06:23:08;;;;;;;3.73;2.90;;;;;;;30.11;37.04;99591.19;5028290;28;20693;-69
2023/06/08 06:25:35;;;;;;;4.27;3.60;;;;;;;30.35;34.97;99566.88;5028960;28;20201;-72
2023/06/08 06:28:02;;;;;;;6.80;3.57;;;;;;;30.62;35.38;99580.22;5028733;28;20190;-69
2023/06/08 06:30:33;;;;;;;5.40;2.97;;;;;;;31.31;34.42;99575.41;5026858;28;20201;-69
2023/06/08 06:33:00;;;;;;;4.43;3.60;;;;;;;31.56;32.88;99575.25;5027583;28;20263;-69
2023/06/08 06:35:27;;;;;;;7.60;3.30;;;;;;;31.45;33.77;99582.28;5028522;28;20832;-70
2023/06/08 06:37:55;;;;;;;5.20;3.20;;;;;;;31.19;33.65;99573.31;5026796;28;20661;-69
2023/06/08 06:40:23;;;;;;;10.43;3.70;;;;;;;31.17;34.22;99575.59;5028694;28;20225;-71
2023/06/08 06:42:49;;;;;;;4.93;2.87;;;;;;;30.95;34.75;99564.84;5027382;28;20547;-68
2023/06/08 06:45:16;;;;;;;12.03;4.00;;;;;;;30.84;35.40;99562.78;5028617;28;20271;-70
2023/06/08 06:47:44;;;;;;;9.37;2.63;;;;;;;31.01;34.67;99560.78;5028992;28;20255;-70
2023/06/08 06:50:11;;;;;;;12.73;2.90;;;;;;;30.98;35.83;99555.97;5028097;28;20193;-69
2023/06/08 06:52:38;;;;;;;4.23;2.57;;;;;;;30.90;35.87;99554.03;5029206;28;20267;-70
2023/06/08 06:55:05;;;;;;;12.00;3.77;;;;;;;31.18;35.25;99560.72;5027787;28;20579;-67
2023/06/08 06:57:32;;;;;;;11.93;3.53;;;;;;;31.27;35.13;99558.78;5028933;28;20661;-67
2023/06/08 06:59:59;;;;;;;3.57;2.87;;;;;;;31.32;35.14;99555.84;5029129;28;20373;-67
2023/06/08 07:02:28;;;;;;;4.03;3.20;;;;;;;31.29;34.35;99553.78;5026627;28;20205;-67
2023/06/08 07:04:58;;;;;;;5.13;3.50;;;;;;;30.99;33.57;99549.31;5028915;28;20209;-70
2023/06/08 07:07:26;;;;;;;7.37;4.43;;;;;;;30.41;34.72;99548.34;5033172;28;20197;-72
2023/06/08 07:09:53;;;;;;;4.77;3.33;;;;;;;30.04;36.51;99554.44;5032771;28;20200;-74
2023/06/08 07:12:19;;;;;;;7.40;3.57;;;;;;;30.06;36.64;99544.78;5032357;28;20189;-71
2023/06/08 07:14:46;;;;;;;9.67;3.97;;;;;;;30.17;36.21;99548.81;5032168;28;20213;-70
2023/06/08 07:17:14;;;;;;;5.93;3.50;;;;;;;30.39;35.92;99539.59;5031471;28;20193;-73
2023/06/08 07:19:41;;;;;;;4.50;3.33;;;;;;;30.55;35.98;99540.72;5031918;28;20280;-70
2023/06/08 07:22:09;;;;;;;25.83;7.27;;;;;;;30.28;36.54;99546.53;5031290;28;20673;-73
2023/06/08 07:24:36;;;;;;;6.67;3.10;;;;;;;30.25;36.89;99537.03;5032939;28;20201;-73
2023/06/08 07:27:03;;;;;;;8.57;3.70;;;;;;;30.40;35.70;99533.81;5031453;28;20228;-73
2023/06/08 07:29:30;;;;;;;7.10;3.67;;;;;;;30.61;35.63;99534.72;5032963;28;20259;-75
2023/06/08 07:31:57;;;;;;;5.40;3.83;;;;;;;31.10;34.62;99542.34;5033406;28;20197;-76
2023/06/08 07:34:25;;;;;;;4.23;3.93;;;;;;;31.21;34.20;99540.84;5028494;28;20724;-76
2023/06/08 07:36:52;;;;;;;4.93;3.37;;;;;;;30.94;35.32;99532.25;5031764;28;20229;-75
2023/06/08 07:39:20;;;;;;;22.77;4.50;;;;;;;30.92;34.59;99527.09;5031547;28;20271;-73
2023/06/08 07:41:47;;;;;;;7.37;4.07;;;;;;;31.16;34.20;99538.31;5031664;28;20856;-75
2023/06/08 07:44:14;;;;;;;5.40;3.80;;;;;;;31.17;33.64;99531.66;5032686;28;20201;-74
2023/06/08 07:46:40;;;;;;;5.53;4.17;;;;;;;30.97;35.08;99526.09;5028473;28;20193;-70
2023/06/08 07:49:07;;;;;;;8.53;3.67;;;;;;;30.90;35.22;99518.38;5032703;28;20201;-70
2023/06/08 07:51:33;;;;;;;9.33;4.63;;;;;;;30.78;34.52;99523.75;5032748;28;20247;-71
2023/06/08 07:54:00;;;;;;;6.97;3.80;;;;;;;30.57;35.36;99517.31;5033142;28;20201;-74
2023/06/08 07:56:28;;;;;;;5.63;4.40;;;;;;;30.44;35.11;99522.97;5064874;28;20290;-78
2023/06/08 07:58:55;;;;;;;5.33;4.70;;;;;;;30.36;34.80;99504.59;5032383;28;20251;-76
2023/06/08 08:01:22;;;;;;;4.67;4.37;;;;;;;30.04;35.79;99518.81;5032634;28;20255;-78
2023/06/08 08:03:49;;;;;;;6.73;3.87;;;;;;;30.00;36.21;99513.16;5032571;28;20251;-77
2023/06/08 08:06:15;;;;;;;4.90;4.40;;;;;;;30.10;35.53;99518.34;5032969;28;20589;-74
2023/06/08 08:08:42;;;;;;;7.20;3.67;;;;;;;30.18;36.50;99514.00;5032603;28;20189;-78
2023/06/08 08:11:09;;;;;;;6.40;4.30;;;;;;;29.91;36.28;99520.59;5032803;28;20284;-75
2023/06/08 08:13:37;;;;;;;9.47;4.70;;;;;;;29.97;35.98;99513.78;5032077;28;20817;-75
2023/06/08 08:16:04;;;;;;;4.33;4.03;;;;;;;29.28;37.25;99515.59;5031277;28;20795;-75
2023/06/08 08:18:31;;;;;;;6.87;4.37;;;;;;;29.62;37.34;99514.91;5030620;28;20194;-75
2023/06/08 08:20:58;;;;;;;6.97;4.90;;;;;;;29.86;35.65;99495.28;5032348;28;20375;-74
2023/06/08 08:23:25;;;;;;;5.97;4.80;;;;;;;29.14;37.67;99512.19;5030596;28;20197;-74
2023/06/08 08:25:51;;;;;;;8.90;4.90;;;;;;;29.32;37.44;99502.13;5031781;28;20247;-76
2023/06/08 08:28:18;;;;;;;5.70;4.70;;;;;;;29.45;36.80;99505.81;5031122;28;20193;-75
2023/06/08 08:30:46;;;;;;;6.20;4.07;;;;;;;29.47;36.92;99504.38;5031183;28;20197;-75
2023/06/08 08:33:13;;;;;;;8.00;5.97;;;;;;;29.50;38.92;99498.28;5030351;28;20309;-72
2023/06/08 08:35:40;;;;;;;5.10;4.60;;;;;;;29.67;37.06;99509.28;5030998;28;20220;-74
2023/06/08 08:38:07;;;;;;;4.53;4.07;;;;;;;29.62;36.63;99501.22;5029263;28;20201;-73
2023/06/08 08:40:34;;;;;;;8.13;3.83;;;;;;;29.74;36.70;99509.63;5029615;28;20225;-76
2023/06/08 08:43:07;;;;;;;4.57;3.90;;;;;;;29.97;36.41;99496.56;5028351;28;20193;-74
2023/06/08 08:45:35;;;;;;;4.67;4.30;;;;;;;30.04;35.18;99496.91;5029183;28;20182;-74
2023/06/08 08:48:03;;;;;;;5.13;4.70;;;;;;;29.97;35.87;99491.88;5028470;28;20259;-74
2023/06/08 08:50:33;;;;;;;5.73;4.57;;;;;;;29.99;36.59;99500.59;5030514;28;20259;-76
2023/06/08 08:53:01;;;;;;;5.17;4.33;;;;;;;30.12;35.52;99494.13;5030692;28;20208;-73
2023/06/08 08:55:28;;;;;;;8.93;4.43;;;;;;;30.24;35.42;99490.75;5031171;28;20264;-74
2023/06/08 08:57:57;;;;;;;4.33;3.93;;;;;;;30.23;36.07;99500.94;5030807;28;20194;-72
2023/06/08 09:00:24;;;;;;;5.07;3.67;;;;;;;30.24;35.35;99491.56;5029572;28;20220;-72
2023/06/08 09:02:52;;;;;;;8.23;4.33;;;;;;;29.32;37.14;99493.91;5030877;28;20255;-73
2023/06/08 09:05:20;;;;;;;7.67;4.90;;;;;;;29.23;37.15;99484.84;5030968;28;20231;-72
2023/06/08 09:07:47;;;;;;;7.63;4.73;;;;;;;29.28;37.09;99485.50;5030858;28;20309;-73
2023/06/08 09:10:16;;;;;;;11.10;4.30;;;;;;;29.29;37.04;99489.06;5031435;28;20200;-72
2023/06/08 09:12:44;;;;;;;7.83;3.40;;;;;;;29.46;37.39;99482.78;5030929;28;20243;-72
2023/06/08 09:15:12;;;;;;;3.77;3.47;;;;;;;29.56;36.66;99475.06;5031217;28;20225;-71
2023/06/08 09:17:40;;;;;;;4.07;3.67;;;;;;;29.54;36.67;99474.59;5029313;28;20197;-71
2023/06/08 09:20:10;;;;;;;6.53;3.50;;;;;;;29.49;36.78;99474.75;5030349;28;20292;-71
2023/06/08 09:22:38;;;;;;;4.90;3.67;;;;;;;29.45;37.18;99475.72;5030594;28;20654;-72
2023/06/08 09:25:06;;;;;;;3.30;2.90;;;;;;;29.48;36.41;99478.59;5029728;28;20831;-73
2023/06/08 09:27:33;;;;;;;6.17;3.57;;;;;;;29.36;37.73;99464.78;5030566;28;20230;-71
2023/06/08 09:30:01;;;;;;;3.83;3.53;;;;;;;29.67;36.90;99468.19;5030545;28;20572;-73
2023/06/08 09:32:32;;;;;;;5.40;3.10;;;;;;;29.64;35.79;99468.84;5032280;28;20255;-72
2023/06/08 09:35:01;;;;;;;3.50;3.20;;;;;;;29.67;35.40;99446.28;5031989;28;20217;-70
2023/06/08 09:37:30;;;;;;;9.87;3.17;;;;;;;29.71;35.44;99455.47;5032496;28;20205;-71
2023/06/08 09:39:58;;;;;;;7.10;3.70;;;;;;;29.86;35.44;99452.25;5031990;28;20319;-75
2023/06/08 09:42:41;;;;;;;4.40;2.93;;;;;;;29.97;34.95;99437.09;5030791;28;20228;-74
2023/06/08 09:45:10;;;;;;;7.77;3.47;;;;;;;30.29;34.24;99458.50;5031912;28;20280;-75
2023/06/08 09:47:37;;;;;;;6.60;3.23;;;;;;;30.47;33.91;99445.56;5032445;28;20197;-76
2023/06/08 09:50:07;;;;;;;3.57;3.00;;;;;;;30.52;33.68;99454.44;5031843;28;20194;-76
2023/06/08 09:52:34;;;;;;;5.47;3.30;;;;;;;30.72;33.33;99456.47;5032147;28;20703;-76
2023/06/08 09:55:03;;;;;;;3.53;2.93;;;;;;;30.77;33.77;99452.72;5031438;28;20275;-76
2023/06/08 09:57:34;;;;;;;2.87;2.67;;;;;;;30.84;33.05;99444.81;5031708;28;20193;-77
2023/06/08 10:00:14;;;;;;;6.40;2.93;;;;;;;31.01;33.12;99448.28;5031767;28;20622;-76
2023/06/08 10:02:50;;;;;;;2.83;2.63;;;;;;;31.13;32.64;99440.13;5032106;28;20247;-77
2023/06/08 10:05:22;;;;;;;4.87;2.73;;;;;;;31.08;32.91;99434.84;5031399;28;20189;-76
2023/06/08 10:07:52;;;;;;;7.07;3.17;;;;;;;31.29;33.85;99432.97;5031968;28;20201;-77
2023/06/08 10:10:22;;;;;;;6.03;2.90;;;;;;;31.31;33.53;99411.47;5032019;28;20201;-76
2023/06/08 10:12:49;;;;;;;3.20;2.87;;;;;;;31.52;32.97;99427.97;5032108;28;20237;-76
2023/06/08 10:15:16;;;;;;;3.77;2.57;;;;;;;31.53;33.43;99430.38;5031633;28;20570;-75
2023/06/08 10:17:44;;;;;;;3.00;2.70;;;;;;;31.57;32.67;99416.75;5031848;28;20247;-77
2023/06/08 10:20:16;;;;;;;4.33;2.90;;;;;;;31.51;32.90;99410.66;5031749;28;20248;-78
2023/06/08 10:22:44;;;;;;;3.00;2.70;;;;;;;31.21;33.28;99408.28;5031896;28;20224;-76
2023/06/08 10:25:13;;;;;;;4.40;2.87;;;;;;;31.28;32.93;99401.13;5031419;28;20618;-76
2023/06/08 10:27:48;;;;;;;3.13;2.30;;;;;;;31.36;33.44;99403.00;5031664;28;20193;-76
2023/06/08 10:30:28;;;;;;;5.20;2.97;;;;;;;30.54;34.90;99386.31;5031849;28;20189;-76
2023/06/08 10:32:56;;;;;;;2.87;2.67;;;;;;;30.62;34.06;99382.75;5031928;28;20264;-76
2023/06/08 10:35:23;;;;;;;3.80;2.40;;;;;;;30.61;33.71;99392.13;5031777;28;20261;-76
2023/06/08 10:37:50;;;;;;;2.87;2.63;;;;;;;30.74;33.51;99391.09;5035502;28;20232;-76
2023/06/08 10:40:19;;;;;;;3.20;2.90;;;;;;;30.81;33.26;99374.13;5035053;28;20306;-76
2023/06/08 10:42:55;;;;;;;3.50;2.70;;;;;;;30.82;32.84;99376.53;5035211;28;20554;-75
2023/06/08 10:45:31;;;;;;;3.13;2.47;;;;;;;30.92;33.27;99367.94;5035392;28;20205;-76
2023/06/08 10:48:03;;;;;;;5.80;3.13;;;;;;;30.95;33.43;99377.44;5035324;28;20189;-75
2023/06/08 10:50:31;;;;;;;2.80;2.50;;;;;;;30.99;32.62;99370.94;5035382;28;20224;-76
2023/06/08 10:52:59;;;;;;;4.23;2.47;;;;;;;31.14;32.73;99367.63;5035191;28;20197;-77
2023/06/08 10:55:28;;;;;;;3.50;2.80;;;;;;;31.19;33.15;99367.41;5034874;28;20229;-77
2023/06/08 10:58:05;;;;;;;6.23;2.57;;;;;;;31.27;33.02;99355.59;5035254;28;20194;-76
2023/06/08 11:00:42;;;;;;;3.43;2.37;;;;;;;31.12;33.06;99342.47;5034294;28;20196;-76
2023/06/08 11:03:11;;;;;;;2.80;2.57;;;;;;;31.24;33.35;99345.28;5035138;28;20189;-76
2023/06/08 11:05:39;;;;;;;3.03;2.83;;;;;;;31.24;33.62;99350.78;5034819;28;20197;-76
2023/06/08 11:08:07;;;;;;;3.83;2.67;;;;;;;31.34;33.18;99344.91;5035009;28;20197;-76
2023/06/08 11:10:36;;;;;;;3.73;2.30;;;;;;;31.46;33.18;99328.47;5034730;28;20638;-77
2023/06/08 11:13:09;;;;;;;3.77;3.33;;;;;;;31.39;33.20;99330.97;5034899;28;20197;-78
2023/06/08 11:15:40;;;;;;;8.13;2.73;;;;;;;31.39;33.81;99333.72;5034567;28;20217;-78
2023/06/08 11:18:08;;;;;;;4.27;3.03;;;;;;;31.30;33.27;99332.16;5034459;28;20657;-77
2023/06/08 11:20:37;;;;;;;3.73;2.80;;;;;;;31.25;32.63;99326.88;5034412;28;20591;-77
2023/06/08 11:23:06;;;;;;;5.23;2.73;;;;;;;31.15;33.11;99325.31;5034432;28;20285;-78
2023/06/08 11:25:34;;;;;;;4.23;2.63;;;;;;;31.01;33.03;99335.75;5034460;28;20267;-78
2023/06/08 11:28:01;;;;;;;3.20;2.90;;;;;;;30.88;33.34;99320.34;5034907;28;20201;-77
2023/06/08 11:30:31;;;;;;;3.70;2.50;;;;;;;30.89;32.59;99323.88;5035035;28;20201;-78
2023/06/08 11:32:58;;;;;;;2.67;2.47;;;;;;;30.85;32.71;99332.00;5034104;28;20189;-77
2023/06/08 11:35:25;;;;;;;2.70;2.50;;;;;;;30.81;32.86;99325.56;5034844;28;20193;-77
2023/06/08 11:37:54;;;;;;;2.77;2.47;;;;;;;30.63;33.21;99317.75;5034149;28;20197;-75